createdAt,value
2023-04-12T00:00:02.491Z,10.20
2023-04-12T00:01:02.488Z,8.50
2023-04-12T00:02:02.503Z,8.50
2023-04-12T00:03:02.519Z,10.50
2023-04-12T00:04:02.993Z,9.20
2023-04-12T00:05:02.545Z,9.90
2023-04-12T00:06:02.461Z,9.50
2023-04-12T00:07:02.429Z,9.40
2023-04-12T00:08:02.518Z,12.50
2023-04-12T00:09:02.376Z,11.80
2023-04-12T00:10:02.381Z,8.00
2023-04-12T00:11:02.363Z,9.40
2023-04-12T00:12:02.364Z,9.30
2023-04-12T00:13:02.369Z,10.00
2023-04-12T00:14:02.368Z,8.50
2023-04-12T00:15:02.318Z,8.00
2023-04-12T00:16:02.377Z,12.70
2023-04-12T00:17:02.323Z,9.70
2023-04-12T00:18:02.375Z,10.40
2023-04-12T00:19:02.298Z,8.50
2023-04-12T00:20:02.283Z,12.30
2023-04-12T00:21:02.294Z,10.90
2023-04-12T00:22:02.358Z,7.90
2023-04-12T00:23:02.230Z,12.70
2023-04-12T00:24:02.248Z,8.40
2023-04-12T00:25:02.239Z,9.20
2023-04-12T00:26:02.222Z,14.00
2023-04-12T00:27:02.224Z,9.00
2023-04-12T00:28:02.208Z,7.90
2023-04-12T00:29:02.172Z,9.80
2023-04-12T00:30:02.186Z,12.80
2023-04-12T00:31:02.244Z,10.00
2023-04-12T00:32:02.156Z,12.30
2023-04-12T00:33:02.222Z,9.80
2023-04-12T00:34:02.156Z,12.00
2023-04-12T00:35:02.098Z,10.80
2023-04-12T00:36:02.217Z,11.90
2023-04-12T00:37:02.107Z,11.40
2023-04-12T00:38:02.099Z,10.50
2023-04-12T00:39:02.062Z,7.30
2023-04-12T00:40:02.082Z,10.90
2023-04-12T00:41:02.093Z,8.20
2023-04-12T00:42:02.055Z,7.10
2023-04-12T00:43:02.059Z,9.90
2023-04-12T00:44:02.049Z,10.30
2023-04-12T00:45:02.006Z,11.00
2023-04-12T00:46:02.026Z,10.00
2023-04-12T00:47:02.053Z,11.80
2023-04-12T00:48:02.047Z,9.60
2023-04-12T00:49:02.064Z,10.80
2023-04-12T00:50:01.981Z,9.20
2023-04-12T00:51:01.936Z,8.50
2023-04-12T00:52:01.958Z,10.80
2023-04-12T00:53:01.931Z,9.60
2023-04-12T00:54:01.926Z,9.60
2023-04-12T00:55:01.950Z,11.00
2023-04-12T00:56:01.986Z,11.20
2023-04-12T00:57:01.896Z,11.90
2023-04-12T00:58:01.903Z,10.60
2023-04-12T00:59:01.888Z,8.60
2023-04-12T01:00:01.889Z,9.40
2023-04-12T01:01:01.865Z,9.00
2023-04-12T01:02:02.094Z,10.80
2023-04-12T01:03:01.945Z,10.50
2023-04-12T01:04:01.876Z,10.80
2023-04-12T01:05:01.801Z,8.70
2023-04-12T01:06:01.851Z,10.00
2023-04-12T01:07:01.804Z,12.60
2023-04-12T01:08:01.796Z,11.20
2023-04-12T01:09:01.757Z,12.40
2023-04-12T01:10:01.766Z,9.10
2023-04-12T01:11:01.787Z,11.10
2023-04-12T01:12:01.760Z,10.30
2023-04-12T01:13:01.751Z,11.60
2023-04-12T01:14:01.750Z,11.30
2023-04-12T01:15:01.731Z,12.30
2023-04-12T01:16:01.744Z,10.10
2023-04-12T01:17:01.704Z,9.60
2023-04-12T01:18:01.736Z,9.50
2023-04-12T01:19:01.705Z,10.00
2023-04-12T01:20:01.677Z,10.40
2023-04-12T01:21:01.625Z,10.90
2023-04-12T01:22:01.709Z,11.10
2023-04-12T01:23:01.603Z,12.00
2023-04-12T01:24:01.633Z,11.10
2023-04-12T01:25:01.598Z,10.70
2023-04-12T01:26:01.648Z,15.40
2023-04-12T01:27:01.560Z,9.30
2023-04-12T01:28:01.605Z,12.10
2023-04-12T01:29:01.550Z,10.10
2023-04-12T01:30:01.561Z,13.40
2023-04-12T01:31:01.542Z,10.00
2023-04-12T01:32:01.739Z,10.20
2023-04-12T01:33:01.652Z,11.40
2023-04-12T01:34:01.558Z,12.20
2023-04-12T01:35:01.494Z,9.60
2023-04-12T01:36:01.559Z,12.10
2023-04-12T01:37:01.518Z,10.20
2023-04-12T01:38:01.472Z,9.50
2023-04-12T01:39:01.440Z,11.30
2023-04-12T01:40:01.465Z,12.70
2023-04-12T01:41:01.421Z,11.60
2023-04-12T01:42:01.430Z,10.80
2023-04-12T01:43:01.428Z,12.60
2023-04-12T01:44:01.414Z,12.60
2023-04-12T01:45:01.399Z,10.70
2023-04-12T01:46:01.426Z,10.00
2023-04-12T01:47:01.384Z,10.80
2023-04-12T01:48:01.414Z,12.70
2023-04-12T01:49:01.362Z,11.00
2023-04-12T01:50:01.390Z,10.70
2023-04-12T01:51:01.400Z,11.10
2023-04-12T01:52:01.328Z,13.30
2023-04-12T01:53:01.311Z,11.80
2023-04-12T01:54:01.321Z,11.30
2023-04-12T01:55:01.305Z,12.60
2023-04-12T01:56:01.292Z,12.10
2023-04-12T01:57:01.266Z,13.30
2023-04-12T01:58:01.269Z,11.00
2023-04-12T01:59:01.232Z,10.70
2023-04-12T02:00:01.315Z,12.60
2023-04-12T02:01:01.264Z,10.40
2023-04-12T02:02:01.292Z,10.50
2023-04-12T02:03:01.300Z,9.90
2023-04-12T02:04:01.676Z,11.50
2023-04-12T02:05:01.172Z,10.60
2023-04-12T02:06:01.257Z,11.30
2023-04-12T02:07:01.167Z,9.80
2023-04-12T02:08:01.171Z,10.00
2023-04-12T02:09:01.162Z,12.50
2023-04-12T02:10:01.151Z,9.50
2023-04-12T02:11:01.114Z,9.90
2023-04-12T02:12:01.140Z,9.70
2023-04-12T02:13:01.107Z,9.10
2023-04-12T02:14:01.109Z,11.60
2023-04-12T02:15:01.067Z,8.90
2023-04-12T02:16:01.105Z,9.80
2023-04-12T02:17:01.247Z,11.30
2023-04-12T02:18:01.085Z,11.30
2023-04-12T02:19:01.308Z,11.80
2023-04-12T02:20:01.054Z,10.00
2023-04-12T02:21:00.997Z,9.30
2023-04-12T02:22:01.036Z,8.60
2023-04-12T02:23:01.006Z,12.80
2023-04-12T02:24:01.008Z,12.20
2023-04-12T02:25:00.985Z,12.60
2023-04-12T02:26:00.975Z,12.50
2023-04-12T02:27:00.937Z,8.50
2023-04-12T02:28:00.993Z,10.00
2023-04-12T02:29:00.938Z,10.30
2023-04-12T02:30:00.934Z,8.40
2023-04-12T02:31:00.982Z,10.40
2023-04-12T02:32:00.928Z,10.20
2023-04-12T02:33:00.906Z,12.90
2023-04-12T02:34:00.898Z,10.20
2023-04-12T02:35:00.896Z,9.70
2023-04-12T02:36:00.977Z,10.50
2023-04-12T02:37:00.923Z,10.90
2023-04-12T02:38:00.869Z,9.70
2023-04-12T02:39:00.847Z,11.20
2023-04-12T02:40:00.842Z,9.30
2023-04-12T02:41:00.827Z,10.20
2023-04-12T02:42:00.805Z,10.00
2023-04-12T02:43:00.840Z,10.50
2023-04-12T02:44:00.808Z,8.60
2023-04-12T02:45:00.750Z,8.10
2023-04-12T02:46:00.848Z,9.70
2023-04-12T02:47:00.824Z,11.60
2023-04-12T02:48:00.757Z,10.10
2023-04-12T02:49:00.747Z,9.70
2023-04-12T02:50:00.721Z,9.00
2023-04-12T02:51:00.698Z,7.80
2023-04-12T02:52:00.705Z,10.10
2023-04-12T02:53:00.668Z,9.10
2023-04-12T02:54:00.696Z,10.70
2023-04-12T02:55:00.673Z,8.80
2023-04-12T02:56:00.673Z,7.80
2023-04-12T02:57:00.633Z,8.20
2023-04-12T02:58:00.637Z,11.00
2023-04-12T02:59:00.663Z,8.70
2023-04-12T03:00:00.621Z,8.90
2023-04-12T03:01:00.691Z,7.80
2023-04-12T03:02:00.771Z,9.00
2023-04-12T03:03:00.654Z,9.80
2023-04-12T03:04:00.877Z,10.90
2023-04-12T03:05:00.545Z,8.10
2023-04-12T03:06:00.567Z,9.30
2023-04-12T03:07:00.568Z,7.60
2023-04-12T03:08:00.580Z,9.40
2023-04-12T03:09:00.503Z,8.40
2023-04-12T03:10:00.531Z,10.20
2023-04-12T03:11:00.504Z,9.30
2023-04-12T03:12:00.498Z,8.50
2023-04-12T03:13:00.502Z,10.80
2023-04-12T03:14:00.491Z,11.00
2023-04-12T03:15:00.446Z,9.90
2023-04-12T03:16:00.512Z,10.30
2023-04-12T03:17:00.421Z,9.00
2023-04-12T03:18:00.546Z,8.80
2023-04-12T03:19:00.438Z,8.20
2023-04-12T03:20:00.447Z,8.90
2023-04-12T03:21:00.393Z,7.40
2023-04-12T03:22:00.390Z,10.20
2023-04-12T03:23:00.361Z,12.40
2023-04-12T03:24:00.366Z,9.40
2023-04-12T03:25:00.408Z,8.70
2023-04-12T03:26:00.324Z,10.40
2023-04-12T03:27:00.402Z,9.20
2023-04-12T03:28:00.331Z,8.20
2023-04-12T03:29:00.337Z,8.70
2023-04-12T03:30:00.290Z,8.80
2023-04-12T03:31:00.353Z,9.90
2023-04-12T03:32:00.261Z,8.50
2023-04-12T03:33:00.384Z,10.80
2023-04-12T03:34:00.432Z,9.40
2023-04-12T03:35:00.260Z,8.70
2023-04-12T03:36:00.259Z,10.00
2023-04-12T03:37:00.360Z,8.30
2023-04-12T03:38:00.196Z,8.70
2023-04-12T03:39:00.215Z,8.80
2023-04-12T03:40:00.186Z,8.90
2023-04-12T03:41:00.261Z,8.90
2023-04-12T03:42:00.156Z,9.90
2023-04-12T03:43:01.853Z,7.00
2023-04-12T03:44:00.142Z,10.50
2023-04-12T03:45:00.174Z,9.10
2023-04-12T03:46:00.168Z,8.70
2023-04-12T03:47:00.158Z,9.30
2023-04-12T03:48:00.203Z,10.40
2023-04-12T03:49:00.129Z,9.00
2023-04-12T03:50:10.931Z,8.80
2023-04-12T03:51:00.174Z,9.00
2023-04-12T03:52:00.058Z,7.40
2023-04-12T03:53:00.064Z,9.30
2023-04-12T03:54:00.139Z,8.20
2023-04-12T03:55:00.093Z,8.80
2023-04-12T03:56:00.013Z,6.40
2023-04-12T03:57:00.028Z,9.40
2023-04-12T03:58:00.010Z,8.20
2023-04-12T03:59:00.003Z,8.40
2023-04-12T03:59:59.971Z,9.70
2023-04-12T04:00:59.995Z,7.90
2023-04-12T04:01:59.992Z,7.40
2023-04-12T04:03:00.016Z,8.20
2023-04-12T04:04:00.318Z,7.30
2023-04-12T04:04:59.968Z,8.20
2023-04-12T04:05:59.918Z,7.50
2023-04-12T04:06:59.946Z,8.00
2023-04-12T04:07:59.884Z,8.90
2023-04-12T04:08:59.897Z,9.80
2023-04-12T04:09:59.880Z,7.70
2023-04-12T04:10:59.896Z,8.60
2023-04-12T04:11:59.858Z,8.80
2023-04-12T04:12:59.876Z,7.30
2023-04-12T04:13:59.831Z,6.40
2023-04-12T04:14:59.844Z,9.60
2023-04-12T04:15:59.833Z,6.90
2023-04-12T04:16:59.829Z,9.00
2023-04-12T04:17:59.847Z,6.60
2023-04-12T04:18:59.814Z,8.70
2023-04-12T04:19:59.765Z,7.90
2023-04-12T04:20:59.788Z,6.30
2023-04-12T04:21:59.752Z,7.80
2023-04-12T04:22:59.755Z,7.70
2023-04-12T04:23:59.716Z,7.70
2023-04-12T04:24:59.750Z,9.10
2023-04-12T04:25:59.708Z,8.00
2023-04-12T04:26:59.710Z,6.50
2023-04-12T04:27:59.757Z,7.40
2023-04-12T04:28:59.689Z,7.90
2023-04-12T04:29:59.693Z,9.10
2023-04-12T04:30:59.691Z,8.70
2023-04-12T04:31:59.679Z,7.30
2023-04-12T04:32:59.713Z,8.40
2023-04-12T04:33:59.613Z,6.50
2023-04-12T04:34:59.639Z,7.30
2023-04-12T04:35:59.614Z,6.70
2023-04-12T04:36:59.651Z,7.50
2023-04-12T04:37:59.578Z,7.50
2023-04-12T04:38:59.608Z,6.40
2023-04-12T04:39:59.550Z,6.10
2023-04-12T04:40:59.590Z,5.20
2023-04-12T04:41:59.534Z,7.10
2023-04-12T04:42:59.600Z,6.20
2023-04-12T04:43:59.520Z,7.90
2023-04-12T04:44:59.531Z,5.90
2023-04-12T04:45:59.524Z,7.30
2023-04-12T04:46:59.509Z,5.60
2023-04-12T04:47:59.574Z,6.10
2023-04-12T04:48:59.535Z,6.50
2023-04-12T04:49:59.483Z,5.50
2023-04-12T04:50:59.474Z,7.10
2023-04-12T04:51:59.430Z,5.00
2023-04-12T04:52:59.451Z,4.90
2023-04-12T04:53:59.419Z,7.70
2023-04-12T04:54:59.450Z,5.40
2023-04-12T04:55:59.407Z,5.80
2023-04-12T04:56:59.407Z,5.10
2023-04-12T04:57:59.376Z,5.40
2023-04-12T04:58:59.705Z,7.10
2023-04-12T04:59:59.369Z,5.40
2023-04-12T05:00:59.403Z,5.90
2023-04-12T05:01:59.350Z,5.30
2023-04-12T05:02:59.414Z,5.20
2023-04-12T05:03:59.463Z,5.20
2023-04-12T05:04:59.320Z,4.10
2023-04-12T05:05:59.316Z,4.70
2023-04-12T05:06:59.319Z,4.30
2023-04-12T05:07:59.280Z,5.70
2023-04-12T05:08:59.440Z,6.10
2023-04-12T05:09:59.237Z,4.10
2023-04-12T05:10:59.267Z,4.60
2023-04-12T05:11:59.219Z,5.90
2023-04-12T05:12:59.252Z,4.90
2023-04-12T05:13:59.217Z,4.00
2023-04-12T05:15:11.088Z,3.90
2023-04-12T05:15:59.197Z,5.40
2023-04-12T05:16:59.316Z,4.00
2023-04-12T05:17:59.182Z,5.40
2023-04-12T05:18:59.308Z,4.90
2023-04-12T05:19:59.141Z,6.40
2023-04-12T05:20:59.157Z,5.30
2023-04-12T05:21:59.119Z,4.40
2023-04-12T05:22:59.149Z,5.30
2023-04-12T05:23:59.098Z,4.10
2023-04-12T05:24:59.144Z,5.80
2023-04-12T05:25:59.082Z,4.20
2023-04-12T05:26:59.083Z,3.80
2023-04-12T05:27:59.048Z,4.60
2023-04-12T05:28:59.172Z,4.00
2023-04-12T05:29:59.037Z,3.70
2023-04-12T05:30:59.143Z,4.60
2023-04-12T05:31:59.066Z,3.80
2023-04-12T05:32:59.289Z,5.50
2023-04-12T05:33:58.993Z,8.40
2023-04-12T05:34:59.013Z,12.40
2023-04-12T05:35:59.010Z,9.20
2023-04-12T05:36:59.011Z,5.30
2023-04-12T05:37:58.980Z,4.80
2023-04-12T05:38:59.071Z,3.80
2023-04-12T05:39:58.974Z,4.00
2023-04-12T05:40:58.939Z,3.50
2023-04-12T05:41:58.936Z,3.80
2023-04-12T05:42:58.960Z,3.90
2023-04-12T05:43:58.884Z,4.40
2023-04-12T05:44:59.030Z,4.00
2023-04-12T05:45:58.907Z,5.30
2023-04-12T05:46:58.886Z,3.80
2023-04-12T05:47:58.875Z,6.40
2023-04-12T05:48:59.142Z,2.80
2023-04-12T05:49:58.832Z,4.30
2023-04-12T05:50:58.843Z,5.50
2023-04-12T05:51:58.808Z,3.80
2023-04-12T05:52:58.859Z,4.30
2023-04-12T05:53:58.793Z,2.90
2023-04-12T05:54:58.865Z,2.60
2023-04-12T05:55:58.785Z,3.10
2023-04-12T05:56:58.826Z,3.00
2023-04-12T05:57:58.846Z,3.30
2023-04-12T05:58:58.915Z,4.90
2023-04-12T05:59:58.730Z,4.20
2023-04-12T06:00:58.783Z,3.00
2023-04-12T06:01:58.739Z,2.70
2023-04-12T06:02:58.878Z,5.40
2023-04-12T06:03:58.772Z,3.20
2023-04-12T06:04:58.852Z,3.00
2023-04-12T06:05:58.668Z,2.90
2023-04-12T06:06:58.728Z,4.40
2023-04-12T06:07:58.655Z,3.40
2023-04-12T06:08:58.799Z,4.20
2023-04-12T06:09:58.628Z,3.80
2023-04-12T06:10:58.651Z,3.20
2023-04-12T06:11:58.608Z,3.20
2023-04-12T06:12:58.629Z,4.80
2023-04-12T06:13:58.597Z,4.40
2023-04-12T06:14:58.593Z,4.10
2023-04-12T06:15:58.611Z,3.40
2023-04-12T06:16:58.574Z,4.00
2023-04-12T06:17:58.576Z,3.80
2023-04-12T06:18:58.831Z,2.70
2023-04-12T06:19:58.529Z,5.00
2023-04-12T06:20:58.654Z,4.20
2023-04-12T06:21:58.511Z,3.70
2023-04-12T06:22:58.517Z,6.00
2023-04-12T06:23:58.477Z,4.70
2023-04-12T06:24:58.502Z,3.80
2023-04-12T06:25:58.459Z,4.50
2023-04-12T06:26:58.483Z,3.40
2023-04-12T06:27:58.441Z,4.50
2023-04-12T06:28:58.712Z,3.20
2023-04-12T06:29:58.410Z,3.20
2023-04-12T06:30:58.574Z,3.10
2023-04-12T06:31:58.391Z,3.30
2023-04-12T06:32:58.480Z,4.00
2023-04-12T06:33:58.379Z,4.70
2023-04-12T06:34:58.401Z,4.90
2023-04-12T06:35:58.464Z,4.30
2023-04-12T06:36:58.385Z,2.10
2023-04-12T06:37:58.330Z,2.40
2023-04-12T06:38:58.588Z,1.80
2023-04-12T06:39:58.314Z,3.10
2023-04-12T06:40:58.318Z,4.50
2023-04-12T06:41:58.304Z,3.50
2023-04-12T06:42:58.344Z,3.80
2023-04-12T06:43:58.268Z,5.90
2023-04-12T06:44:58.302Z,5.50
2023-04-12T06:45:58.247Z,4.80
2023-04-12T06:46:58.307Z,6.00
2023-04-12T06:47:58.280Z,7.10
2023-04-12T06:48:58.451Z,5.70
2023-04-12T06:49:58.241Z,2.10
2023-04-12T06:50:58.225Z,4.40
2023-04-12T06:51:58.240Z,5.10
2023-04-12T06:52:58.192Z,3.30
2023-04-12T06:53:58.165Z,4.60
2023-04-12T06:54:58.198Z,2.60
2023-04-12T06:55:58.496Z,3.60
2023-04-12T06:56:58.147Z,2.40
2023-04-12T06:57:58.122Z,4.40
2023-04-12T06:58:58.231Z,4.10
2023-04-12T06:59:58.096Z,5.30
2023-04-12T07:00:58.193Z,2.70
2023-04-12T07:01:58.117Z,4.40
2023-04-12T07:02:58.127Z,5.00
2023-04-12T07:03:58.179Z,4.80
2023-04-12T07:04:58.085Z,5.00
2023-04-12T07:05:58.032Z,4.00
2023-04-12T07:06:58.101Z,3.40
2023-04-12T07:07:58.024Z,3.40
2023-04-12T07:08:58.238Z,4.20
2023-04-12T07:09:58.213Z,3.10
2023-04-12T07:10:59.506Z,3.50
2023-04-12T07:11:57.981Z,3.80
2023-04-12T07:12:58.003Z,3.60
2023-04-12T07:13:57.958Z,3.20
2023-04-12T07:14:57.973Z,2.00
2023-04-12T07:15:58.161Z,5.00
2023-04-12T07:16:57.948Z,3.80
2023-04-12T07:17:57.973Z,4.40
2023-04-12T07:18:58.039Z,4.70
2023-04-12T07:19:57.891Z,3.40
2023-04-12T07:20:57.902Z,3.40
2023-04-12T07:21:57.877Z,4.30
2023-04-12T07:22:57.897Z,3.20
2023-04-12T07:23:57.853Z,4.70
2023-04-12T07:24:57.875Z,4.00
2023-04-12T07:25:57.845Z,3.20
2023-04-12T07:26:57.844Z,3.10
2023-04-12T07:27:57.808Z,3.50
2023-04-12T07:28:58.023Z,3.90
2023-04-12T07:29:57.783Z,3.00
2023-04-12T07:30:57.861Z,3.50
2023-04-12T07:31:57.768Z,2.80
2023-04-12T07:33:08.634Z,3.30
2023-04-12T07:33:57.854Z,4.10
2023-04-12T07:34:57.769Z,3.80
2023-04-12T07:35:57.768Z,4.00
2023-04-12T07:36:57.759Z,3.40
2023-04-12T07:37:57.710Z,3.70
2023-04-12T07:38:57.957Z,4.70
2023-04-12T07:39:57.718Z,4.70
2023-04-12T07:40:57.690Z,3.00
2023-04-12T07:41:57.689Z,3.30
2023-04-12T07:42:57.665Z,5.00
2023-04-12T07:43:57.677Z,2.90
2023-04-12T07:44:57.651Z,3.90
2023-04-12T07:45:57.685Z,2.90
2023-04-12T07:46:57.614Z,3.40
2023-04-12T07:47:57.670Z,2.90
2023-04-12T07:48:57.817Z,3.80
2023-04-12T07:49:57.657Z,3.80
2023-04-12T07:50:57.594Z,1.30
2023-04-12T07:51:57.646Z,5.20
2023-04-12T07:52:57.570Z,2.50
2023-04-12T07:53:57.828Z,3.20
2023-04-12T07:54:57.824Z,2.10
2023-04-12T07:55:57.577Z,3.40
2023-04-12T07:56:57.516Z,2.40
2023-04-12T07:57:57.523Z,2.40
2023-04-12T07:58:57.811Z,2.50
2023-04-12T07:59:57.505Z,3.60
2023-04-12T08:00:59.222Z,2.70
2023-04-12T08:01:57.569Z,2.80
2023-04-12T08:02:57.594Z,2.00
2023-04-12T08:03:57.887Z,3.10
2023-04-12T08:04:57.442Z,3.00
2023-04-12T08:05:57.481Z,1.70
2023-04-12T08:06:57.428Z,2.00
2023-04-12T08:07:57.423Z,1.50
2023-04-12T08:08:57.406Z,1.90
2023-04-12T08:09:57.404Z,2.10
2023-04-12T08:10:57.387Z,1.90
2023-04-12T08:11:57.377Z,2.30
2023-04-12T08:12:57.361Z,1.90
2023-04-12T08:13:57.641Z,2.80
2023-04-12T08:14:57.322Z,1.70
2023-04-12T08:15:57.391Z,1.60
2023-04-12T08:16:57.314Z,2.00
2023-04-12T08:17:57.355Z,1.80
2023-04-12T08:18:57.319Z,1.40
2023-04-12T08:19:57.298Z,2.40
2023-04-12T08:20:57.292Z,1.00
2023-04-12T08:21:57.272Z,2.00
2023-04-12T08:22:57.248Z,1.90
2023-04-12T08:23:57.483Z,1.10
2023-04-12T08:24:57.243Z,1.90
2023-04-12T08:25:57.240Z,3.10
2023-04-12T08:26:57.220Z,2.60
2023-04-12T08:27:57.212Z,3.80
2023-04-12T08:28:57.199Z,1.40
2023-04-12T08:29:57.199Z,2.00
2023-04-12T08:30:57.255Z,1.70
2023-04-12T08:31:57.198Z,2.20
2023-04-12T08:32:57.217Z,1.40
2023-04-12T08:33:57.409Z,1.50
2023-04-12T08:34:57.119Z,1.10
2023-04-12T08:35:57.150Z,1.50
2023-04-12T08:36:57.117Z,1.10
2023-04-12T08:37:57.139Z,2.00
2023-04-12T08:38:57.075Z,2.30
2023-04-12T08:39:57.086Z,1.40
2023-04-12T08:40:57.069Z,1.30
2023-04-12T08:41:57.082Z,2.00
2023-04-12T08:42:57.060Z,1.90
2023-04-12T08:43:57.155Z,1.50
2023-04-12T08:44:57.017Z,1.50
2023-04-12T08:45:57.026Z,1.70
2023-04-12T08:46:57.146Z,2.50
2023-04-12T08:47:57.034Z,1.40
2023-04-12T08:48:57.011Z,2.20
2023-04-12T08:49:56.985Z,1.60
2023-04-12T08:50:56.963Z,2.20
2023-04-12T08:51:56.970Z,2.30
2023-04-12T08:52:56.947Z,1.80
2023-04-12T08:53:57.218Z,1.40
2023-04-12T08:54:56.923Z,2.10
2023-04-12T08:55:56.925Z,1.20
2023-04-12T08:56:56.892Z,2.20
2023-04-12T08:57:56.942Z,1.70
2023-04-12T08:58:56.870Z,2.00
2023-04-12T08:59:56.882Z,1.80
2023-04-12T09:00:56.886Z,1.80
2023-04-12T09:01:56.991Z,2.10
2023-04-12T09:02:57.119Z,1.10
2023-04-12T09:03:57.381Z,1.30
2023-04-12T09:04:56.918Z,2.10
2023-04-12T09:05:56.827Z,1.10
2023-04-12T09:06:56.808Z,1.80
2023-04-12T09:07:56.796Z,0.90
2023-04-12T09:08:56.768Z,1.10
2023-04-12T09:09:56.791Z,1.40
2023-04-12T09:10:56.742Z,3.20
2023-04-12T09:11:56.758Z,1.40
2023-04-12T09:12:56.741Z,1.40
2023-04-12T09:13:57.107Z,1.00
2023-04-12T09:14:56.716Z,1.80
2023-04-12T09:15:56.719Z,0.90
2023-04-12T09:16:56.725Z,0.90
2023-04-12T09:17:56.722Z,1.70
2023-04-12T09:18:56.918Z,1.20
2023-04-12T09:19:56.665Z,2.90
2023-04-12T09:20:56.710Z,1.90
2023-04-12T09:21:56.675Z,1.80
2023-04-12T09:22:56.632Z,1.90
2023-04-12T09:23:56.861Z,1.40
2023-04-12T09:24:56.617Z,1.20
2023-04-12T09:25:56.604Z,4.80
2023-04-12T09:26:56.588Z,2.30
2023-04-12T09:27:56.611Z,2.40
2023-04-12T09:28:56.567Z,1.50
2023-04-12T09:29:57.864Z,1.90
2023-04-12T09:30:56.606Z,1.80
2023-04-12T09:31:56.642Z,1.20
2023-04-12T09:32:56.557Z,1.80
2023-04-12T09:33:56.855Z,2.20
2023-04-12T09:34:56.530Z,4.00
2023-04-12T09:35:56.530Z,2.40
2023-04-12T09:36:56.534Z,2.50
2023-04-12T09:37:56.500Z,1.80
2023-04-12T09:38:56.448Z,1.50
2023-04-12T09:39:56.484Z,2.70
2023-04-12T09:40:56.440Z,3.00
2023-04-12T09:41:56.459Z,1.70
2023-04-12T09:42:56.476Z,1.10
2023-04-12T09:43:57.121Z,1.20
2023-04-12T09:44:56.386Z,1.40
2023-04-12T09:45:56.433Z,2.30
2023-04-12T09:46:56.600Z,1.20
2023-04-12T09:47:56.491Z,2.30
2023-04-12T09:48:56.374Z,2.10
2023-04-12T09:49:56.371Z,1.60
2023-04-12T09:50:56.337Z,2.20
2023-04-12T09:51:59.355Z,2.90
2023-04-12T09:52:56.325Z,1.50
2023-04-12T09:53:56.486Z,1.70
2023-04-12T09:54:56.344Z,1.20
2023-04-12T09:55:56.310Z,1.90
2023-04-12T09:56:56.285Z,1.70
2023-04-12T09:57:56.341Z,2.10
2023-04-12T09:58:56.512Z,2.40
2023-04-12T09:59:56.256Z,1.40
2023-04-12T10:00:56.253Z,1.80
2023-04-12T10:01:56.363Z,1.90
2023-04-12T10:02:56.751Z,2.50
2023-04-12T10:03:56.625Z,2.00
2023-04-12T10:04:56.246Z,2.40
2023-04-12T10:05:56.211Z,1.30
2023-04-12T10:06:56.195Z,2.70
2023-04-12T10:07:56.173Z,1.90
2023-04-12T10:08:56.439Z,2.40
2023-04-12T10:09:56.167Z,2.90
2023-04-12T10:10:56.149Z,2.80
2023-04-12T10:11:56.138Z,2.60
2023-04-12T10:12:56.165Z,2.20
2023-04-12T10:13:56.423Z,1.30
2023-04-12T10:14:56.115Z,1.10
2023-04-12T10:15:56.157Z,2.00
2023-04-12T10:16:56.072Z,1.40
2023-04-12T10:17:56.100Z,1.40
2023-04-12T10:18:56.399Z,3.30
2023-04-12T10:19:56.061Z,1.80
2023-04-12T10:20:56.039Z,2.20
2023-04-12T10:21:56.049Z,1.50
2023-04-12T10:22:55.997Z,1.30
2023-04-12T10:23:56.001Z,1.80
2023-04-12T10:24:55.992Z,1.30
2023-04-12T10:25:55.995Z,1.30
2023-04-12T10:26:56.025Z,2.00
2023-04-12T10:27:55.976Z,1.40
2023-04-12T10:28:56.226Z,1.10
2023-04-12T10:29:55.949Z,1.40
2023-04-12T10:30:55.985Z,1.90
2023-04-12T10:31:56.001Z,1.40
2023-04-12T10:32:55.924Z,1.50
2023-04-12T10:33:55.912Z,2.20
2023-04-12T10:34:55.870Z,1.40
2023-04-12T10:35:56.064Z,1.00
2023-04-12T10:36:55.869Z,1.40
2023-04-12T10:37:55.880Z,1.50
2023-04-12T10:38:55.845Z,1.20
2023-04-12T10:39:55.853Z,1.00
2023-04-12T10:40:55.812Z,1.40
2023-04-12T10:41:55.823Z,1.10
2023-04-12T10:42:55.815Z,2.40
2023-04-12T10:43:55.821Z,1.60
2023-04-12T10:44:56.288Z,1.70
2023-04-12T10:45:55.790Z,2.00
2023-04-12T10:46:55.833Z,1.30
2023-04-12T10:47:55.820Z,5.70
2023-04-12T10:48:55.918Z,1.30
2023-04-12T10:49:55.778Z,1.10
2023-04-12T10:50:55.727Z,1.70
2023-04-12T10:51:55.769Z,1.90
2023-04-12T10:52:55.741Z,2.40
2023-04-12T10:53:55.730Z,1.90
2023-04-12T10:54:55.687Z,1.50
2023-04-12T10:55:55.699Z,2.10
2023-04-12T10:56:55.649Z,1.80
2023-04-12T10:57:55.664Z,1.40
2023-04-12T10:58:55.763Z,2.30
2023-04-12T10:59:55.660Z,3.10
2023-04-12T11:00:55.768Z,2.40
2023-04-12T11:01:55.823Z,2.00
2023-04-12T11:02:55.759Z,2.70
2023-04-12T11:03:55.772Z,3.50
2023-04-12T11:04:55.636Z,2.00
2023-04-12T11:05:55.582Z,4.00
2023-04-12T11:06:57.583Z,2.40
2023-04-12T11:07:55.550Z,1.90
2023-04-12T11:08:55.518Z,2.10
2023-04-12T11:09:55.533Z,1.20
2023-04-12T11:10:55.502Z,1.30
2023-04-12T11:11:55.498Z,1.50
2023-04-12T11:12:55.771Z,2.30
2023-04-12T11:13:55.496Z,1.90
2023-04-12T11:14:55.455Z,1.30
2023-04-12T11:15:55.478Z,1.70
2023-04-12T11:16:55.479Z,1.10
2023-04-12T11:17:55.825Z,1.70
2023-04-12T11:18:55.732Z,1.50
2023-04-12T11:19:55.471Z,1.50
2023-04-12T11:20:55.429Z,1.50
2023-04-12T11:21:55.387Z,1.20
2023-04-12T11:22:55.376Z,2.60
2023-04-12T11:23:55.377Z,1.40
2023-04-12T11:24:55.376Z,0.80
2023-04-12T11:25:55.390Z,0.80
2023-04-12T11:26:55.318Z,1.60
2023-04-12T11:27:55.355Z,1.00
2023-04-12T11:28:55.590Z,0.90
2023-04-12T11:29:55.309Z,1.60
2023-04-12T11:30:55.329Z,1.40
2023-04-12T11:31:55.409Z,1.10
2023-04-12T11:32:55.266Z,1.90
2023-04-12T11:33:55.265Z,1.30
2023-04-12T11:34:55.233Z,2.20
2023-04-12T11:35:55.238Z,2.10
2023-04-12T11:36:55.270Z,1.70
2023-04-12T11:37:55.223Z,1.10
2023-04-12T11:38:55.449Z,1.10
2023-04-12T11:39:55.216Z,1.50
2023-04-12T11:40:55.183Z,2.20
2023-04-12T11:41:55.182Z,1.90
2023-04-12T11:42:55.190Z,1.10
2023-04-12T11:43:55.164Z,1.90
2023-04-12T11:45:00.282Z,1.80
2023-04-12T11:45:55.176Z,1.40
2023-04-12T11:46:55.123Z,1.80
2023-04-12T11:47:55.137Z,2.00
2023-04-12T11:48:55.235Z,2.00
2023-04-12T11:49:55.104Z,1.20
2023-04-12T11:51:07.592Z,1.30
2023-04-12T11:51:55.097Z,1.10
2023-04-12T11:52:55.050Z,1.00
2023-04-12T11:53:55.166Z,1.00
2023-04-12T11:54:55.052Z,1.10
2023-04-12T11:55:55.006Z,1.40
2023-04-12T11:56:55.023Z,1.60
2023-04-12T11:57:54.989Z,2.60
2023-04-12T11:58:55.002Z,1.90
2023-04-12T11:59:54.970Z,1.60
2023-04-12T12:00:55.006Z,1.20
2023-04-12T12:01:54.967Z,1.70
2023-04-12T12:03:06.723Z,1.10
2023-04-12T12:03:55.197Z,1.00
2023-04-12T12:04:55.121Z,1.30
2023-04-12T12:05:55.404Z,1.50
2023-04-12T12:06:55.028Z,4.90
2023-04-12T12:07:54.885Z,1.80
2023-04-12T12:08:54.902Z,3.00
2023-04-12T12:09:54.874Z,1.40
2023-04-12T12:11:07.208Z,2.00
2023-04-12T12:11:54.841Z,1.30
2023-04-12T12:12:54.889Z,3.10
2023-04-12T12:13:54.820Z,3.10
2023-04-12T12:14:54.829Z,2.30
2023-04-12T12:15:54.882Z,1.10
2023-04-12T12:16:54.845Z,1.60
2023-04-12T12:17:54.801Z,0.90
2023-04-12T12:18:54.834Z,1.10
2023-04-12T12:19:54.768Z,1.20
2023-04-12T12:20:54.808Z,1.20
2023-04-12T12:21:54.736Z,1.20
2023-04-12T12:22:54.762Z,1.10
2023-04-12T12:23:54.721Z,1.20
2023-04-12T12:24:54.759Z,1.40
2023-04-12T12:26:02.961Z,1.40
2023-04-12T12:26:54.708Z,1.40
2023-04-12T12:27:54.731Z,1.00
2023-04-12T12:28:54.708Z,1.90
2023-04-12T12:29:54.682Z,1.80
2023-04-12T12:30:54.696Z,1.90
2023-04-12T12:31:54.795Z,1.90
2023-04-12T12:32:54.698Z,2.00
2023-04-12T12:33:54.615Z,1.30
2023-04-12T12:34:54.635Z,2.30
2023-04-12T12:35:54.618Z,1.80
2023-04-12T12:36:54.620Z,1.60
2023-04-12T12:37:54.583Z,2.50
2023-04-12T12:38:54.586Z,1.50
2023-04-12T12:39:54.566Z,2.90
2023-04-12T12:40:54.583Z,1.60
2023-04-12T12:41:54.528Z,1.90
2023-04-12T12:42:54.588Z,3.00
2023-04-12T12:43:54.501Z,2.40
2023-04-12T12:44:54.529Z,4.30
2023-04-12T12:45:54.512Z,14.70
2023-04-12T12:47:00.808Z,21.20
2023-04-12T12:47:54.540Z,28.10
2023-04-12T12:48:54.533Z,28.10
2023-04-12T12:49:54.451Z,19.80
2023-04-12T12:50:54.465Z,25.40
2023-04-12T12:51:54.458Z,26.70
2023-04-12T12:52:54.448Z,33.20
2023-04-12T12:53:54.415Z,30.30
2023-04-12T12:54:54.437Z,36.80
2023-04-12T12:55:54.384Z,41.60
2023-04-12T12:56:54.400Z,44.10
2023-04-12T12:58:06.142Z,33.70
2023-04-12T12:58:54.396Z,36.10
2023-04-12T12:59:54.352Z,30.60
2023-04-12T13:00:54.385Z,29.70
2023-04-12T13:01:54.384Z,19.30
2023-04-12T13:02:54.679Z,20.00
2023-04-12T13:03:54.548Z,20.40
2023-04-12T13:04:54.446Z,22.20
2023-04-12T13:05:54.286Z,20.30
2023-04-12T13:06:54.321Z,34.70
2023-04-12T13:07:54.274Z,40.20
2023-04-12T13:08:54.272Z,27.10
2023-04-12T13:09:54.240Z,38.60
2023-04-12T13:10:54.248Z,31.30
2023-04-12T13:11:54.254Z,27.90
2023-04-12T13:12:54.265Z,31.60